createdAt,value
2022-10-02T00:02:21.862Z,96.85
2022-10-02T00:05:17.516Z,97.29
2022-10-02T00:07:53.946Z,97.21
2022-10-02T00:10:23.008Z,97.23
2022-10-02T00:12:53.247Z,97.18
2022-10-02T00:15:23.350Z,97.35
2022-10-02T00:17:51.889Z,96.96
2022-10-02T00:20:20.158Z,97.26
2022-10-02T00:23:01.436Z,97.49
2022-10-02T00:25:43.280Z,98.27
2022-10-02T00:28:29.301Z,98.47
2022-10-02T00:31:11.851Z,98.77
2022-10-02T00:33:38.415Z,100.00
2022-10-02T00:36:40.098Z,100.00
2022-10-02T00:39:25.095Z,100.00
2022-10-02T00:42:00.497Z,100.00
2022-10-02T00:44:41.018Z,100.00
2022-10-02T00:47:16.432Z,100.00
2022-10-02T00:49:59.441Z,100.00
2022-10-02T00:52:44.599Z,100.00
2022-10-02T00:55:39.211Z,100.00
2022-10-02T00:58:13.839Z,99.72
2022-10-02T01:00:45.962Z,99.79
2022-10-02T01:03:24.329Z,99.77
2022-10-02T01:05:51.061Z,99.32
2022-10-02T01:08:17.803Z,99.35
2022-10-02T01:10:45.205Z,98.81
2022-10-02T01:13:15.496Z,99.40
2022-10-02T01:15:49.511Z,99.35
2022-10-02T01:18:16.166Z,99.36
2022-10-02T01:20:45.959Z,99.48
2022-10-02T01:23:21.553Z,98.88
2022-10-02T01:25:48.295Z,99.80
2022-10-02T01:28:15.078Z,100.00
2022-10-02T01:30:45.021Z,100.00
2022-10-02T01:33:13.006Z,100.00
2022-10-02T01:35:40.046Z,100.00
2022-10-02T01:38:10.074Z,100.00
2022-10-02T01:40:38.284Z,100.00
2022-10-02T01:43:39.224Z,100.00
2022-10-02T01:46:27.893Z,99.91
2022-10-02T01:49:17.743Z,99.91
2022-10-02T01:51:53.036Z,100.00
2022-10-02T01:54:35.692Z,99.97
2022-10-02T01:57:29.837Z,99.70
2022-10-02T02:00:02.485Z,100.00
2022-10-02T02:02:34.822Z,100.00
2022-10-02T02:05:36.413Z,100.00
2022-10-02T02:08:09.969Z,99.94
2022-10-02T02:11:00.513Z,100.00
2022-10-02T02:13:32.369Z,100.00
2022-10-02T02:16:01.774Z,100.00
2022-10-02T02:18:34.425Z,100.00
2022-10-02T02:21:08.921Z,100.00
2022-10-02T02:23:37.738Z,100.00
2022-10-02T02:26:08.468Z,100.00
2022-10-02T02:28:35.878Z,100.00
2022-10-02T02:31:03.422Z,100.00
2022-10-02T02:33:43.368Z,100.00
2022-10-02T02:36:15.798Z,100.00
2022-10-02T02:38:45.832Z,100.00
2022-10-02T02:41:14.444Z,100.00
2022-10-02T02:43:46.818Z,100.00
2022-10-02T02:46:25.565Z,100.00
2022-10-02T02:48:57.169Z,100.00
2022-10-02T02:51:41.672Z,100.00
2022-10-02T02:54:38.644Z,100.00
2022-10-02T02:57:06.413Z,100.00
2022-10-02T02:59:34.306Z,100.00
2022-10-02T03:02:01.797Z,100.00
2022-10-02T03:04:28.584Z,100.00
2022-10-02T03:06:59.432Z,100.00
2022-10-02T03:09:26.612Z,100.00
2022-10-02T03:12:09.660Z,100.00
2022-10-02T03:14:47.836Z,100.00
2022-10-02T03:17:21.295Z,100.00
2022-10-02T03:19:50.920Z,100.00
2022-10-02T03:22:36.428Z,100.00
2022-10-02T03:25:24.507Z,100.00
2022-10-02T03:27:59.006Z,100.00
2022-10-02T03:30:26.158Z,100.00
2022-10-02T03:32:53.848Z,100.00
2022-10-02T03:35:21.644Z,100.00
2022-10-02T03:37:51.789Z,100.00
2022-10-02T03:40:22.187Z,100.00
2022-10-02T03:42:48.831Z,100.00
2022-10-02T03:45:27.449Z,100.00
2022-10-02T03:48:02.102Z,100.00
2022-10-02T03:50:31.757Z,100.00
2022-10-02T03:53:02.117Z,100.00
2022-10-02T03:55:38.289Z,100.00
2022-10-02T03:58:16.910Z,100.00
2022-10-02T04:00:50.030Z,100.00
2022-10-02T04:03:37.643Z,100.00
2022-10-02T04:06:16.458Z,100.00
2022-10-02T04:09:00.223Z,100.00
2022-10-02T04:11:49.266Z,100.00
2022-10-02T04:14:23.006Z,100.00
2022-10-02T04:17:44.322Z,100.00
2022-10-02T04:20:35.756Z,100.00
2022-10-02T04:23:21.144Z,100.00
2022-10-02T04:25:52.226Z,100.00
2022-10-02T04:28:27.823Z,100.00
2022-10-02T04:30:54.725Z,100.00
2022-10-02T04:33:24.089Z,100.00
2022-10-02T04:36:21.709Z,100.00
2022-10-02T04:38:52.197Z,100.00
2022-10-02T04:41:30.906Z,100.00
2022-10-02T04:44:08.741Z,100.00
2022-10-02T04:47:13.595Z,100.00
2022-10-02T04:50:01.296Z,100.00
2022-10-02T04:52:42.308Z,100.00
2022-10-02T04:55:22.081Z,100.00
2022-10-02T04:57:54.300Z,100.00
2022-10-02T05:00:22.393Z,100.00
2022-10-02T05:02:54.530Z,100.00
2022-10-02T05:05:42.754Z,100.00
2022-10-02T05:08:23.625Z,100.00
2022-10-02T05:10:59.707Z,100.00
2022-10-02T05:13:32.169Z,100.00
2022-10-02T05:16:17.480Z,100.00
2022-10-02T05:19:07.329Z,100.00
2022-10-02T05:21:55.431Z,100.00
2022-10-02T05:24:45.306Z,100.00
2022-10-02T05:27:20.230Z,100.00
2022-10-02T05:29:49.433Z,100.00
2022-10-02T05:32:32.202Z,100.00
2022-10-02T05:35:06.093Z,100.00
2022-10-02T05:37:40.004Z,100.00
2022-10-02T05:40:18.624Z,100.00
2022-10-02T05:42:56.231Z,100.00
2022-10-02T05:45:29.361Z,100.00
2022-10-02T05:48:03.830Z,100.00
2022-10-02T05:50:35.020Z,100.00
2022-10-02T05:53:17.506Z,100.00
2022-10-02T05:55:49.908Z,100.00
2022-10-02T05:58:33.272Z,100.00
2022-10-02T06:01:16.179Z,100.00
2022-10-02T06:03:48.404Z,100.00
2022-10-02T06:06:19.655Z,100.00
2022-10-02T06:09:01.158Z,100.00
2022-10-02T06:11:42.050Z,100.00
2022-10-02T06:14:22.106Z,100.00
2022-10-02T06:17:23.879Z,100.00
2022-10-02T06:20:15.304Z,100.00
2022-10-02T06:22:46.598Z,100.00
2022-10-02T06:25:23.525Z,100.00
2022-10-02T06:28:01.924Z,100.00
2022-10-02T06:30:30.492Z,100.00
2022-10-02T06:33:03.783Z,100.00
2022-10-02T06:35:36.199Z,100.00
2022-10-02T06:38:16.412Z,100.00
2022-10-02T06:40:50.862Z,100.00
2022-10-02T06:43:36.725Z,100.00
2022-10-02T06:46:32.402Z,100.00
2022-10-02T06:49:14.984Z,100.00
2022-10-02T06:52:14.808Z,100.00
2022-10-02T06:54:51.298Z,100.00
2022-10-02T06:57:39.680Z,100.00
2022-10-02T07:00:16.465Z,100.00
2022-10-02T07:03:01.146Z,100.00
2022-10-02T07:06:03.998Z,100.00
2022-10-02T07:08:33.176Z,100.00
2022-10-02T07:11:21.863Z,100.00
2022-10-02T07:14:17.030Z,100.00
2022-10-02T07:17:02.318Z,100.00
2022-10-02T07:19:44.094Z,100.00
2022-10-02T07:22:45.078Z,100.00
2022-10-02T07:25:36.126Z,100.00
2022-10-02T07:28:17.815Z,99.58
2022-10-02T07:30:50.713Z,98.79
2022-10-02T07:33:30.724Z,97.54
2022-10-02T07:36:12.280Z,97.23
2022-10-02T07:38:45.425Z,97.45
2022-10-02T07:41:49.858Z,96.81
2022-10-02T07:44:38.451Z,96.96
2022-10-02T07:47:52.852Z,95.51
2022-10-02T07:50:31.563Z,95.32
2022-10-02T07:53:07.002Z,94.01
2022-10-02T07:55:35.872Z,94.83
2022-10-02T07:58:26.602Z,93.23
2022-10-02T08:00:56.410Z,93.26
2022-10-02T08:03:26.100Z,92.97
2022-10-02T08:05:55.310Z,92.42
2022-10-02T08:08:24.918Z,91.93
2022-10-02T08:11:04.412Z,91.68
2022-10-02T08:13:34.905Z,91.21
2022-10-02T08:16:03.982Z,91.52
2022-10-02T08:18:35.522Z,90.80
2022-10-02T08:21:04.729Z,91.56
2022-10-02T08:23:44.359Z,91.05
2022-10-02T08:26:35.207Z,91.14
2022-10-02T08:29:18.050Z,90.07
2022-10-02T08:31:45.362Z,89.16
2022-10-02T08:34:21.082Z,88.55
2022-10-02T08:36:56.355Z,88.46
2022-10-02T08:39:44.610Z,87.67
2022-10-02T08:42:45.627Z,87.02
2022-10-02T08:45:19.262Z,86.12
2022-10-02T08:48:07.640Z,85.86
2022-10-02T08:51:25.660Z,86.15
2022-10-02T08:54:23.057Z,85.22
2022-10-02T08:57:13.237Z,84.18
2022-10-02T09:00:00.184Z,82.97
2022-10-02T09:02:29.577Z,81.85
2022-10-02T09:05:01.821Z,81.60
2022-10-02T09:07:47.256Z,81.17
2022-10-02T09:10:51.324Z,79.58
2022-10-02T09:13:43.369Z,79.49
2022-10-02T09:16:29.117Z,79.76
2022-10-02T09:18:56.502Z,79.45
2022-10-02T09:21:56.403Z,78.67
2022-10-02T09:24:59.754Z,75.93
2022-10-02T09:28:07.468Z,76.10
2022-10-02T09:31:03.885Z,74.48
2022-10-02T09:34:08.762Z,75.83
2022-10-02T09:36:51.143Z,74.66
2022-10-02T09:39:17.711Z,73.54
2022-10-02T09:41:56.970Z,72.07
2022-10-02T09:45:00.406Z,72.11
2022-10-02T09:47:37.479Z,71.77
2022-10-02T09:50:30.360Z,71.06
2022-10-02T09:53:15.029Z,71.15
2022-10-02T09:56:04.350Z,69.83
2022-10-02T09:58:44.448Z,69.93
2022-10-02T10:01:28.903Z,68.65
2022-10-02T10:04:13.541Z,68.53
2022-10-02T10:06:40.238Z,68.52
2022-10-02T10:09:06.957Z,68.38
2022-10-02T10:11:36.337Z,68.94
2022-10-02T10:14:40.109Z,68.28
2022-10-02T10:17:28.101Z,68.52
2022-10-02T10:20:15.917Z,67.94
2022-10-02T10:23:20.662Z,67.60
2022-10-02T10:26:05.417Z,67.14
2022-10-02T10:28:40.599Z,66.88
2022-10-02T10:31:30.274Z,66.51
2022-10-02T10:34:34.299Z,65.67
2022-10-02T10:37:25.014Z,65.75
2022-10-02T10:40:27.178Z,65.60
2022-10-02T10:43:08.057Z,65.03
2022-10-02T10:45:47.612Z,66.88
2022-10-02T10:48:34.221Z,68.79
2022-10-02T10:51:19.320Z,70.12
2022-10-02T10:54:02.127Z,70.80
2022-10-02T10:56:36.980Z,70.82
2022-10-02T10:59:25.626Z,72.25
2022-10-02T11:01:55.027Z,73.13
2022-10-02T11:04:52.258Z,75.63
2022-10-02T11:07:39.421Z,76.20
2022-10-02T11:10:25.215Z,77.52
2022-10-02T11:13:10.166Z,79.33
2022-10-02T11:15:52.556Z,80.08
2022-10-02T11:18:53.184Z,80.72
2022-10-02T11:21:35.660Z,81.28
2022-10-02T11:24:13.680Z,81.90
2022-10-02T11:26:59.965Z,81.97
2022-10-02T11:30:09.850Z,81.08
2022-10-02T11:33:10.847Z,84.14
2022-10-02T11:35:48.397Z,85.12
2022-10-02T11:38:35.545Z,86.56
2022-10-02T11:41:24.108Z,86.77
2022-10-02T11:44:01.901Z,87.05
2022-10-02T11:46:53.609Z,88.32
2022-10-02T11:50:00.214Z,88.03
2022-10-02T11:52:51.574Z,87.67
2022-10-02T11:55:53.073Z,87.85
2022-10-02T11:58:54.713Z,88.70
2022-10-02T12:01:45.817Z,89.35
2022-10-02T12:04:34.146Z,88.48
2022-10-02T12:07:28.834Z,89.64
2022-10-02T12:10:23.432Z,88.96
2022-10-02T12:13:21.156Z,89.27
2022-10-02T12:16:21.612Z,88.76
2022-10-02T12:19:08.478Z,89.66
2022-10-02T12:22:21.881Z,89.04
2022-10-02T12:25:33.538Z,90.84
2022-10-02T12:28:12.390Z,93.30
2022-10-02T12:31:05.357Z,91.63
2022-10-02T12:33:56.670Z,89.25
2022-10-02T12:36:56.493Z,87.98
2022-10-02T12:39:42.816Z,89.37
2022-10-02T12:42:15.474Z,89.38
2022-10-02T12:44:49.493Z,91.15
2022-10-02T12:47:29.297Z,88.68
2022-10-02T12:50:23.464Z,87.10
2022-10-02T12:53:08.430Z,87.65
2022-10-02T12:55:53.854Z,83.99
2022-10-02T12:58:23.760Z,83.32
2022-10-02T13:01:31.811Z,82.05
2022-10-02T13:04:24.802Z,85.54
2022-10-02T13:07:19.810Z,75.89
2022-10-02T13:10:01.301Z,78.44
2022-10-02T13:12:40.496Z,77.79
2022-10-02T13:15:18.080Z,71.64
2022-10-02T13:18:10.473Z,75.44
2022-10-02T13:20:49.109Z,75.78
2022-10-02T13:23:29.317Z,73.65
2022-10-02T13:26:03.297Z,74.76
2022-10-02T13:28:40.951Z,74.04
2022-10-02T13:31:16.943Z,75.41
2022-10-02T13:33:59.770Z,75.53
2022-10-02T13:37:01.681Z,76.32
2022-10-02T13:39:30.990Z,78.83
2022-10-02T13:42:00.422Z,78.58
2022-10-02T13:44:37.097Z,79.46
2022-10-02T13:47:12.775Z,79.97
2022-10-02T13:49:48.085Z,79.13
2022-10-02T13:52:20.688Z,79.09
2022-10-02T13:55:07.972Z,78.55
2022-10-02T13:58:06.576Z,79.84
2022-10-02T14:00:50.974Z,83.08
2022-10-02T14:03:20.497Z,82.93
2022-10-02T14:05:57.786Z,83.60
2022-10-02T14:08:46.574Z,84.14
2022-10-02T14:11:30.861Z,86.29
2022-10-02T14:14:39.872Z,86.40
2022-10-02T14:17:12.384Z,86.36
2022-10-02T14:20:00.211Z,86.45
2022-10-02T14:22:58.129Z,87.87
2022-10-02T14:25:35.740Z,87.18
2022-10-02T14:28:02.463Z,85.91
2022-10-02T14:31:02.875Z,85.93
2022-10-02T14:33:45.809Z,86.21
2022-10-02T14:36:31.508Z,87.54
2022-10-02T14:39:10.197Z,90.00
2022-10-02T14:42:04.612Z,89.50
2022-10-02T14:45:02.812Z,91.13
2022-10-02T14:48:01.177Z,90.89
2022-10-02T14:50:58.861Z,93.87
2022-10-02T14:53:55.985Z,93.52
2022-10-02T14:56:22.867Z,92.90
2022-10-02T14:59:10.674Z,93.61
2022-10-02T15:01:44.754Z,93.82
2022-10-02T15:04:30.238Z,92.53
2022-10-02T15:07:01.717Z,91.90
2022-10-02T15:09:58.542Z,91.87
2022-10-02T15:12:30.376Z,92.94
2022-10-02T15:15:04.896Z,93.18
2022-10-02T15:18:00.317Z,93.71
2022-10-02T15:20:35.937Z,92.46
2022-10-02T15:23:09.856Z,92.58
2022-10-02T15:25:48.605Z,92.77
2022-10-02T15:28:37.595Z,91.59
2022-10-02T15:31:18.995Z,91.23
2022-10-02T15:34:07.057Z,91.76
2022-10-02T15:36:43.477Z,92.71
2022-10-02T15:39:19.566Z,92.38
2022-10-02T15:42:08.297Z,90.52
2022-10-02T15:45:00.503Z,91.93
2022-10-02T15:47:56.786Z,92.10
2022-10-02T15:50:29.436Z,92.65
2022-10-02T15:53:36.361Z,92.20
2022-10-02T15:56:28.044Z,91.44
2022-10-02T15:59:16.581Z,92.54
2022-10-02T16:01:55.793Z,92.08
2022-10-02T16:04:49.196Z,91.62
2022-10-02T16:07:50.766Z,92.02
2022-10-02T16:10:36.144Z,88.81
2022-10-02T16:13:20.958Z,90.09
2022-10-02T16:15:56.375Z,91.52
2022-10-02T16:18:48.174Z,91.76
2022-10-02T16:21:33.505Z,91.68
2022-10-02T16:24:18.627Z,92.08
2022-10-02T16:27:07.536Z,92.18
2022-10-02T16:29:59.703Z,90.88
2022-10-02T16:32:36.129Z,91.41
2022-10-02T16:35:02.697Z,92.78
2022-10-02T16:37:46.690Z,93.67
2022-10-02T16:40:27.000Z,93.55
2022-10-02T16:43:27.273Z,93.90
2022-10-02T16:46:04.207Z,93.78
2022-10-02T16:48:51.372Z,93.97
2022-10-02T16:51:38.215Z,94.36
2022-10-02T16:54:19.693Z,94.23
2022-10-02T16:57:04.319Z,94.43
2022-10-02T16:59:48.656Z,95.13
2022-10-02T17:02:43.608Z,94.63
2022-10-02T17:05:35.371Z,94.52
2022-10-02T17:08:08.523Z,95.87
2022-10-02T17:11:10.591Z,97.10
2022-10-02T17:13:58.777Z,97.27
2022-10-02T17:16:37.660Z,97.40
2022-10-02T17:19:23.480Z,97.53
2022-10-02T17:22:04.961Z,97.79
2022-10-02T17:24:40.659Z,97.51
2022-10-02T17:27:14.865Z,97.76
2022-10-02T17:29:53.077Z,98.10
2022-10-02T17:32:51.660Z,98.72
2022-10-02T17:35:23.930Z,98.36
2022-10-02T17:38:17.530Z,97.82
2022-10-02T17:40:53.612Z,96.94
2022-10-02T17:43:31.477Z,96.15
2022-10-02T17:46:24.433Z,96.96
2022-10-02T17:49:04.397Z,97.69
2022-10-02T17:51:53.348Z,97.82
2022-10-02T17:55:02.067Z,97.46
2022-10-02T17:57:34.766Z,97.73
2022-10-02T18:00:19.690Z,97.34
2022-10-02T18:03:10.067Z,97.29
2022-10-02T18:05:57.123Z,97.20
2022-10-02T18:08:30.688Z,97.26
2022-10-02T18:11:23.650Z,97.11
2022-10-02T18:14:08.325Z,97.35
2022-10-02T18:17:06.528Z,97.91
2022-10-02T18:19:38.180Z,98.05
2022-10-02T18:22:37.518Z,97.22
2022-10-02T18:25:24.964Z,98.48
2022-10-02T18:28:19.254Z,100.00
2022-10-02T18:31:13.197Z,98.90
2022-10-02T18:34:06.877Z,97.07
2022-10-02T18:36:59.359Z,96.67
2022-10-02T18:39:40.205Z,97.22
2022-10-02T18:42:21.604Z,96.17
2022-10-02T18:45:32.894Z,96.42
2022-10-02T18:48:27.270Z,95.50
2022-10-02T18:51:08.838Z,94.64
2022-10-02T18:54:06.508Z,95.46
2022-10-02T18:56:54.953Z,96.33
2022-10-02T18:59:33.687Z,96.47
2022-10-02T19:02:06.386Z,96.74
2022-10-02T19:04:36.030Z,97.46
2022-10-02T19:07:07.448Z,97.17
2022-10-02T19:09:34.212Z,97.47
2022-10-02T19:12:16.425Z,97.77
2022-10-02T19:14:47.793Z,97.81
2022-10-02T19:17:26.137Z,97.37
2022-10-02T19:19:53.589Z,97.33
2022-10-02T19:22:25.968Z,97.51
2022-10-02T19:24:57.750Z,97.66
2022-10-02T19:27:30.082Z,97.27
2022-10-02T19:29:59.326Z,96.51
2022-10-02T19:32:29.162Z,95.89
2022-10-02T19:35:05.802Z,95.96
2022-10-02T19:37:33.693Z,96.37
2022-10-02T19:40:03.845Z,95.76
2022-10-02T19:42:44.391Z,95.48
2022-10-02T19:45:25.475Z,95.14
2022-10-02T19:48:03.445Z,95.29
2022-10-02T19:50:59.923Z,95.87
2022-10-02T19:53:34.318Z,96.05
2022-10-02T19:56:04.052Z,96.10
2022-10-02T19:58:39.786Z,96.84
2022-10-02T20:01:17.381Z,96.40
2022-10-02T20:03:44.125Z,96.82
2022-10-02T20:06:16.109Z,97.16
2022-10-02T20:08:48.512Z,96.92
2022-10-02T20:11:19.990Z,97.18
2022-10-02T20:13:55.577Z,97.19
2022-10-02T20:16:42.345Z,97.46
2022-10-02T20:19:19.489Z,96.91
2022-10-02T20:21:54.433Z,96.58
2022-10-02T20:24:34.905Z,97.02
2022-10-02T20:27:12.768Z,97.37
2022-10-02T20:29:47.085Z,97.83
2022-10-02T20:32:25.305Z,97.46
2022-10-02T20:34:59.300Z,96.83
2022-10-02T20:37:29.614Z,97.28
2022-10-02T20:40:13.362Z,98.62
2022-10-02T20:42:53.505Z,98.84
2022-10-02T20:45:23.498Z,99.35
2022-10-02T20:48:19.180Z,99.49
2022-10-02T20:50:58.371Z,99.12
2022-10-02T20:53:37.285Z,98.62
2022-10-02T20:56:18.865Z,98.57
2022-10-02T20:59:01.644Z,99.13
2022-10-02T21:01:55.495Z,98.98
2022-10-02T21:04:43.109Z,99.16
2022-10-02T21:07:35.217Z,98.91
2022-10-02T21:10:16.551Z,99.37
2022-10-02T21:12:52.101Z,99.61
2022-10-02T21:15:18.716Z,99.39
2022-10-02T21:21:53.687Z,97.81
2022-10-02T21:24:54.568Z,98.22
2022-10-02T21:27:39.472Z,98.14
2022-10-02T21:30:46.588Z,98.52
2022-10-02T21:33:46.002Z,98.31
2022-10-02T21:36:46.589Z,98.23
2022-10-02T21:39:47.066Z,98.78
2022-10-02T21:42:38.370Z,99.19
2022-10-02T21:45:05.166Z,99.36
2022-10-02T21:48:16.078Z,99.62
2022-10-02T21:51:13.232Z,99.29
2022-10-02T21:54:05.362Z,98.74
2022-10-02T21:56:37.621Z,98.53
2022-10-02T21:59:22.436Z,98.21
2022-10-02T22:02:11.668Z,99.23
2022-10-02T22:04:48.634Z,99.53
2022-10-02T22:07:24.347Z,99.76
2022-10-02T22:10:06.108Z,100.00
2022-10-02T22:13:10.929Z,100.00
2022-10-02T22:15:53.991Z,100.00
2022-10-02T22:18:53.058Z,100.00
2022-10-02T22:21:30.601Z,100.00
2022-10-02T22:24:06.561Z,100.00
2022-10-02T22:26:57.907Z,100.00
2022-10-02T22:29:39.532Z,99.63
2022-10-02T22:32:49.469Z,98.47
2022-10-02T22:35:40.817Z,98.26
2022-10-02T22:38:19.950Z,97.52
2022-10-02T22:40:51.480Z,97.58
2022-10-02T22:43:24.549Z,97.53
2022-10-02T22:45:57.147Z,97.40
2022-10-02T22:48:32.477Z,97.68
2022-10-02T22:51:06.853Z,97.93
2022-10-02T22:53:48.328Z,98.68
2022-10-02T22:56:23.071Z,98.02
2022-10-02T22:58:58.078Z,97.30
2022-10-02T23:01:30.229Z,97.36
2022-10-02T23:04:30.470Z,98.03
2022-10-02T23:07:06.538Z,98.04
2022-10-02T23:09:44.434Z,98.51
2022-10-02T23:12:15.553Z,98.07
2022-10-02T23:15:25.477Z,97.88
2022-10-02T23:17:59.567Z,98.24
2022-10-02T23:20:35.544Z,98.81
2022-10-02T23:23:02.312Z,98.32
2022-10-02T23:25:41.584Z,98.55
2022-10-02T23:28:15.259Z,98.57
2022-10-02T23:30:46.612Z,98.96
2022-10-02T23:33:26.138Z,99.30
2022-10-02T23:36:02.438Z,99.20
2022-10-02T23:38:44.619Z,99.47
2022-10-02T23:41:36.215Z,99.50
2022-10-02T23:44:19.436Z,99.72
2022-10-02T23:46:49.085Z,99.64
2022-10-02T23:49:21.002Z,99.54
2022-10-02T23:52:26.217Z,99.29
2022-10-02T23:54:59.567Z,99.15
2022-10-02T23:58:03.447Z,98.87
